createdAt,value
2023-02-11T11:06:32.414Z,101581.28
2023-02-11T11:11:51.780Z,101498.13
2023-02-11T11:16:54.616Z,101540.25
2023-02-11T11:21:57.229Z,101523.75
2023-02-11T11:27:01.797Z,101520.25
2023-02-11T11:32:33.643Z,101553.75
2023-02-11T11:37:36.999Z,101492.78
2023-02-11T11:42:40.113Z,101485.28
2023-02-11T11:47:44.314Z,101483.63
2023-02-11T11:53:04.602Z,101489.22
2023-02-11T11:58:14.382Z,101552.84
2023-02-11T12:03:38.457Z,101542.44
2023-02-11T12:08:40.059Z,101558.78
2023-02-11T12:14:02.990Z,101548.84
2023-02-11T12:19:29.000Z,101506.59
2023-02-11T12:24:33.240Z,101500.78
2023-02-11T12:30:01.433Z,101572.16
2023-02-11T12:35:28.244Z,101520.50
2023-02-11T12:40:55.241Z,101526.16
2023-02-11T12:46:24.769Z,101541.50
2023-02-11T12:51:56.606Z,101517.66
2023-02-11T12:57:08.452Z,101493.94
2023-02-11T13:02:24.592Z,101545.63
2023-02-11T13:07:39.388Z,101517.00
2023-02-11T13:13:04.503Z,101539.25
2023-02-11T13:18:31.920Z,101522.53
2023-02-11T13:23:36.238Z,101488.78
2023-02-11T13:28:41.463Z,101514.13
2023-02-11T13:33:44.403Z,101517.19
2023-02-11T13:38:59.828Z,101515.19
2023-02-11T13:44:23.653Z,101533.41
2023-02-11T13:49:28.028Z,101507.97
2023-02-11T13:54:34.457Z,101483.59
2023-02-11T13:59:36.013Z,101492.25
2023-02-11T14:04:57.346Z,101530.97
2023-02-11T14:09:59.361Z,101518.59
2023-02-11T14:15:22.684Z,101477.78
2023-02-11T14:20:42.028Z,101498.81
2023-02-11T14:25:50.708Z,101492.16
2023-02-11T14:31:07.817Z,101511.72
2023-02-11T14:36:18.379Z,101506.38
2023-02-11T14:41:24.500Z,101493.00
2023-02-11T14:46:29.937Z,101514.44
2023-02-11T14:51:36.441Z,101495.00
2023-02-11T14:56:38.288Z,101511.06
2023-02-11T15:01:48.968Z,101530.66
2023-02-11T15:06:51.285Z,101496.00
2023-02-11T15:11:54.295Z,101519.28
2023-02-11T15:17:03.729Z,101523.31
2023-02-11T15:22:13.911Z,101526.13
2023-02-11T15:27:16.380Z,101489.72
2023-02-11T15:32:19.368Z,101526.25
2023-02-11T15:37:22.855Z,101521.88
2023-02-11T15:42:27.103Z,101490.09
2023-02-11T15:47:29.110Z,101492.63
2023-02-11T15:52:31.710Z,101488.88
2023-02-11T15:57:34.140Z,101527.00
2023-02-11T16:02:38.701Z,101537.38
2023-02-11T16:07:44.714Z,101554.72
2023-02-11T16:13:04.596Z,101533.19
2023-02-11T16:18:38.843Z,101545.03
2023-02-11T16:23:44.789Z,101537.41
2023-02-11T16:28:46.605Z,101548.47
2023-02-11T16:33:48.283Z,101549.31
2023-02-11T16:38:52.755Z,101556.84
2023-02-11T16:43:58.318Z,101581.28
2023-02-11T16:49:26.118Z,101572.28
2023-02-11T16:54:29.823Z,101564.75
2023-02-11T16:59:31.508Z,101594.84
2023-02-11T17:04:34.450Z,101600.75
2023-02-11T17:09:36.133Z,101601.88
2023-02-11T17:14:37.740Z,101595.19
2023-02-11T17:19:40.182Z,101544.09
2023-02-11T17:24:41.859Z,101593.25
2023-02-11T17:29:43.758Z,101538.78
2023-02-11T17:34:45.506Z,101602.34
2023-02-11T17:39:49.542Z,101592.44
2023-02-11T17:44:51.163Z,101572.66
2023-02-11T17:49:52.821Z,101592.06
2023-02-11T17:54:55.336Z,101578.75
2023-02-11T17:59:57.287Z,101616.78
2023-02-11T18:04:59.009Z,101619.84
2023-02-11T18:10:00.841Z,101569.88
2023-02-11T18:15:02.709Z,101604.88
2023-02-11T18:20:05.112Z,101626.25
2023-02-11T18:25:07.876Z,101593.72
2023-02-11T18:30:15.208Z,101625.31
2023-02-11T18:35:17.066Z,101620.91
2023-02-11T18:40:18.982Z,101588.38
2023-02-11T18:45:20.783Z,101629.31
2023-02-11T18:50:22.703Z,101632.94
2023-02-11T18:55:25.947Z,101617.13
2023-02-11T19:00:30.262Z,101608.91
2023-02-11T19:05:33.546Z,101562.75
2023-02-11T19:10:35.522Z,101613.88
2023-02-11T19:15:44.530Z,101646.63
2023-02-11T19:20:46.614Z,101655.03
2023-02-11T19:25:48.812Z,101619.34
2023-02-11T19:30:50.561Z,101626.97
2023-02-11T19:35:52.539Z,101610.53
2023-02-11T19:40:57.720Z,101556.91
2023-02-11T19:46:02.112Z,101603.56
2023-02-11T19:51:13.046Z,101622.53
2023-02-11T19:56:15.809Z,101613.53
2023-02-11T20:01:19.910Z,101595.97
2023-02-11T20:06:24.684Z,101598.81
2023-02-11T20:11:28.926Z,101600.16
2023-02-11T20:16:46.778Z,101596.50
2023-02-11T20:21:52.836Z,101610.53
2023-02-11T20:26:56.058Z,101606.28
2023-02-11T20:31:58.166Z,101602.41
2023-02-11T20:37:00.058Z,101583.59
2023-02-11T20:42:01.798Z,101599.13
2023-02-11T20:47:03.519Z,101600.97
2023-02-11T20:52:05.210Z,101588.59
2023-02-11T20:57:07.482Z,101568.28
2023-02-11T21:02:10.281Z,101564.75
2023-02-11T21:07:12.052Z,101565.09
2023-02-11T21:12:13.831Z,101598.88
2023-02-11T21:17:15.555Z,101590.47
2023-02-11T21:22:17.276Z,101557.44
2023-02-11T21:27:19.121Z,101578.91
2023-02-11T21:32:20.801Z,101559.78
2023-02-11T21:37:23.274Z,101568.97
2023-02-11T21:42:24.979Z,101566.25
2023-02-11T21:47:26.636Z,101525.69
2023-02-11T21:52:28.260Z,101590.50
2023-02-11T21:57:31.024Z,101587.91
2023-02-11T22:02:32.680Z,101516.56
2023-02-11T22:07:36.429Z,101493.56
2023-02-11T22:12:38.026Z,101604.41
2023-02-11T22:17:39.850Z,101501.09
2023-02-11T22:22:41.485Z,101517.66
2023-02-11T22:27:43.506Z,101543.66
2023-02-11T22:32:45.266Z,101554.75
2023-02-11T22:37:47.029Z,101611.31
2023-02-11T22:42:48.876Z,101590.22
2023-02-11T22:47:50.522Z,101638.75
2023-02-11T22:52:52.268Z,101605.09
2023-02-11T22:57:53.914Z,101620.25
2023-02-11T23:02:56.201Z,101619.34
2023-02-11T23:07:58.004Z,101631.69
2023-02-11T23:12:59.734Z,101608.56
2023-02-11T23:18:01.523Z,101686.38
2023-02-11T23:23:03.757Z,101665.00
2023-02-11T23:28:05.569Z,101610.81
2023-02-11T23:33:07.303Z,101631.59
2023-02-11T23:38:09.108Z,101681.53
2023-02-11T23:43:10.788Z,101630.84
2023-02-11T23:48:12.468Z,101590.47
2023-02-11T23:53:14.278Z,101603.66
2023-02-11T23:58:16.803Z,101657.63
